Time;durP1;ratioP1;P1;durP2;ratioP2;P2;SDS_P1;SDS_P2;PMS_P1;PMS_P2;Temp;Humidity;BMP_temperature;BMP_pressure;BME280_temperature;BME280_humidity;BME280_pressure;Samples;Min_cycle;Max_cycle;Signal;HPM_P1;HPM_P2
2021/01/09 00:03:26;;;;;;;29.77;12.17;;;;;;;;;;10436789;28;20246;-70
2021/01/09 00:08:29;;;;;;;29.00;11.63;;;;;;;;;;10437999;28;21022;-70
2021/01/09 00:13:35;;;;;;;24.60;11.53;;;;;;;;;;10434733;28;20210;-70
2021/01/09 00:18:37;;;;;;;25.63;11.33;;;;;;;;;;10437652;28;20428;-70
2021/01/09 00:23:39;;;;;;;22.47;10.80;;;;;;;;;;10439111;28;20239;-70
2021/01/09 00:28:41;;;;;;;24.07;11.37;;;;;;;;;;10437329;28;20657;-69
2021/01/09 00:33:43;;;;;;;24.10;11.40;;;;;;;;;;10437706;28;20217;-69
2021/01/09 00:38:46;;;;;;;21.97;10.47;;;;;;;;;;10439304;28;20677;-71
2021/01/09 00:43:48;;;;;;;21.77;11.27;;;;;;;;;;10435695;28;21013;-68
2021/01/09 00:48:49;;;;;;;21.93;10.97;;;;;;;;;;10445857;28;20214;-69
2021/01/09 00:53:52;;;;;;;22.97;11.30;;;;;;;;;;10437065;28;20215;-70
2021/01/09 00:58:54;;;;;;;25.57;11.90;;;;;;;;;;10434788;28;20235;-69
2021/01/09 01:03:56;;;;;;;22.40;11.53;;;;;;;;;;10440659;28;20671;-70
2021/01/09 01:08:58;;;;;;;27.03;11.60;;;;;;;;;;10435252;28;23977;-69
2021/01/09 01:14:00;;;;;;;26.97;12.03;;;;;;;;;;10436946;28;20210;-70
2021/01/09 01:19:02;;;;;;;24.57;11.20;;;;;;;;;;10441573;28;20210;-70
2021/01/09 01:24:06;;;;;;;27.63;11.83;;;;;;;;;;10441321;28;20332;-70
2021/01/09 01:29:08;;;;;;;26.23;11.53;;;;;;;;;;10430314;28;20220;-73
2021/01/09 01:34:09;;;;;;;23.77;12.30;;;;;;;;;;10437716;28;20219;-72
2021/01/09 01:39:12;;;;;;;26.83;12.00;;;;;;;;;;10434640;28;20231;-72
2021/01/09 01:44:14;;;;;;;31.33;12.80;;;;;;;;;;10435144;28;20238;-73
2021/01/09 01:49:16;;;;;;;22.03;11.80;;;;;;;;;;10433996;28;20215;-73
2021/01/09 01:54:19;;;;;;;28.70;12.10;;;;;;;;;;10436049;28;20791;-73
2021/01/09 01:59:20;;;;;;;24.83;11.27;;;;;;;;;;10435804;28;20232;-73
2021/01/09 02:04:22;;;;;;;31.80;12.17;;;;;;;;;;10445877;28;20607;-73
2021/01/09 02:09:27;;;;;;;27.60;13.50;;;;;;;;;;10439956;28;20231;-72
2021/01/09 02:14:35;;;;;;;27.23;12.93;;;;;;;;;;10442709;28;20577;-73
2021/01/09 02:19:38;;;;;;;23.60;11.23;;;;;;;;;;10443860;28;20302;-73
2021/01/09 02:24:41;;;;;;;29.20;12.77;;;;;;;;;;10441956;28;20234;-73
2021/01/09 02:29:45;;;;;;;26.40;11.67;;;;;;;;;;10439554;28;20211;-73
2021/01/09 02:34:51;;;;;;;28.53;12.03;;;;;;;;;;10443951;28;20207;-72
2021/01/09 02:39:54;;;;;;;24.87;12.63;;;;;;;;;;10441058;28;20203;-72
2021/01/09 02:44:56;;;;;;;26.40;12.57;;;;;;;;;;10447277;28;20238;-73
2021/01/09 02:49:58;;;;;;;27.87;12.40;;;;;;;;;;10438871;28;20215;-72
2021/01/09 02:55:00;;;;;;;23.60;11.27;;;;;;;;;;10441292;28;20210;-73
2021/01/09 03:00:03;;;;;;;22.87;12.10;;;;;;;;;;10439995;28;20227;-72
2021/01/09 03:05:05;;;;;;;27.53;12.20;;;;;;;;;;10436103;28;20280;-71
2021/01/09 03:10:08;;;;;;;23.97;12.13;;;;;;;;;;10454016;28;20236;-72
2021/01/09 03:15:10;;;;;;;24.27;12.17;;;;;;;;;;10446133;28;20207;-72
2021/01/09 03:20:12;;;;;;;24.00;11.30;;;;;;;;;;10440658;28;20215;-73
2021/01/09 03:25:15;;;;;;;22.00;11.73;;;;;;;;;;10440212;28;20937;-74
2021/01/09 03:30:17;;;;;;;25.27;11.30;;;;;;;;;;10441932;28;20215;-74
2021/01/09 03:35:22;;;;;;;22.47;10.70;;;;;;;;;;10457813;28;20207;-74
2021/01/09 03:40:24;;;;;;;18.97;9.37;;;;;;;;;;10448528;28;20207;-74
2021/01/09 03:45:26;;;;;;;24.60;10.60;;;;;;;;;;10435252;28;20704;-75
2021/01/09 03:50:28;;;;;;;25.17;12.70;;;;;;;;;;10436040;28;20214;-72
2021/01/09 03:55:31;;;;;;;23.13;11.53;;;;;;;;;;10440350;28;20893;-73
2021/01/09 04:00:33;;;;;;;24.17;11.33;;;;;;;;;;10441104;28;20234;-74
2021/01/09 04:05:35;;;;;;;22.73;11.53;;;;;;;;;;10449954;28;20233;-74
2021/01/09 04:10:38;;;;;;;22.47;11.13;;;;;;;;;;10441197;28;20292;-74
2021/01/09 04:15:40;;;;;;;25.30;11.70;;;;;;;;;;10436708;28;20977;-70
2021/01/09 04:20:42;;;;;;;24.57;11.60;;;;;;;;;;10434955;28;20204;-70
2021/01/09 04:25:44;;;;;;;24.37;11.80;;;;;;;;;;10438459;28;20207;-70
2021/01/09 04:30:46;;;;;;;22.97;11.80;;;;;;;;;;10431424;28;20227;-70
2021/01/09 04:35:49;;;;;;;21.60;11.17;;;;;;;;;;10443055;28;20297;-69
2021/01/09 04:40:51;;;;;;;22.63;10.60;;;;;;;;;;10436909;28;20202;-69
2021/01/09 04:45:53;;;;;;;26.27;11.40;;;;;;;;;;10432809;28;20207;-69
2021/01/09 04:50:56;;;;;;;23.17;11.70;;;;;;;;;;10435822;28;20211;-68
2021/01/09 04:55:59;;;;;;;23.30;11.50;;;;;;;;;;10439666;28;20210;-69
2021/01/09 05:01:01;;;;;;;25.93;10.73;;;;;;;;;;10434408;28;20238;-69
2021/01/09 05:06:03;;;;;;;23.60;11.27;;;;;;;;;;10440767;28;20206;-69
2021/01/09 05:11:06;;;;;;;24.43;12.00;;;;;;;;;;10440935;28;20238;-69
2021/01/09 05:16:07;;;;;;;18.63;9.83;;;;;;;;;;10439230;28;21019;-70
2021/01/09 05:21:11;;;;;;;19.83;10.13;;;;;;;;;;10435504;28;20234;-70
2021/01/09 05:26:14;;;;;;;18.47;10.07;;;;;;;;;;10433683;28;20238;-70
2021/01/09 05:31:17;;;;;;;22.80;11.50;;;;;;;;;;10436498;28;20215;-70
2021/01/09 05:36:19;;;;;;;21.30;10.67;;;;;;;;;;10445653;28;20352;-72
2021/01/09 05:41:22;;;;;;;23.83;9.80;;;;;;;;;;10444601;28;20234;-71
2021/01/09 05:46:24;;;;;;;22.30;9.83;;;;;;;;;;10447375;28;20685;-68
2021/01/09 05:51:26;;;;;;;24.77;10.30;;;;;;;;;;10442634;28;20215;-69
2021/01/09 05:56:29;;;;;;;23.07;10.37;;;;;;;;;;10451457;28;20668;-69
2021/01/09 06:01:32;;;;;;;20.30;9.70;;;;;;;;;;10443183;28;23015;-70
2021/01/09 06:06:39;;;;;;;19.07;8.97;;;;;;;;;;10441682;28;20218;-70
2021/01/09 06:11:42;;;;;;;17.77;9.43;;;;;;;;;;10445491;28;20225;-71
2021/01/09 06:16:44;;;;;;;20.93;9.07;;;;;;;;;;10448017;28;20207;-70
2021/01/09 06:21:46;;;;;;;19.33;9.80;;;;;;;;;;10450345;28;20227;-70
2021/01/09 06:26:49;;;;;;;19.67;9.40;;;;;;;;;;10439365;28;20215;-71
2021/01/09 06:31:53;;;;;;;22.77;9.33;;;;;;;;;;10442726;28;20211;-69
2021/01/09 06:36:55;;;;;;;24.33;9.27;;;;;;;;;;10441181;28;20209;-70
2021/01/09 06:41:59;;;;;;;17.87;8.07;;;;;;;;;;10443875;28;20833;-70
2021/01/09 06:47:01;;;;;;;18.07;7.77;;;;;;;;;;10437048;28;20207;-70
2021/01/09 06:52:06;;;;;;;17.40;7.27;;;;;;;;;;10442432;28;20821;-69
2021/01/09 06:57:09;;;;;;;18.33;7.33;;;;;;;;;;10443136;28;20214;-74
2021/01/09 07:02:12;;;;;;;16.83;7.27;;;;;;;;;;10443899;28;20241;-73
2021/01/09 07:07:23;;;;;;;15.40;7.17;;;;;;;;;;10441155;28;20234;-73
2021/01/09 07:12:27;;;;;;;16.93;7.97;;;;;;;;;;10440225;28;20209;-71
2021/01/09 07:17:32;;;;;;;18.97;7.90;;;;;;;;;;10438933;28;20211;-73
2021/01/09 07:22:37;;;;;;;25.27;8.70;;;;;;;;;;10443241;28;20235;-73
2021/01/09 07:27:41;;;;;;;18.33;8.90;;;;;;;;;;10442467;28;20203;-73
2021/01/09 07:32:44;;;;;;;20.70;7.73;;;;;;;;;;10438918;28;20784;-72
2021/01/09 07:37:46;;;;;;;16.37;7.63;;;;;;;;;;10447157;28;20210;-78
2021/01/09 07:42:49;;;;;;;20.03;7.83;;;;;;;;;;10443518;28;20239;-77
2021/01/09 07:47:51;;;;;;;15.70;7.77;;;;;;;;;;10437457;28;20203;-76
2021/01/09 07:53:04;;;;;;;19.00;7.47;;;;;;;;;;10446884;28;20302;-77
2021/01/09 07:58:06;;;;;;;15.53;6.73;;;;;;;;;;10446640;28;20229;-78
2021/01/09 08:03:09;;;;;;;18.93;7.83;;;;;;;;;;10444054;28;20237;-75
2021/01/09 08:08:11;;;;;;;20.80;7.07;;;;;;;;;;10448034;28;20285;-75
2021/01/09 08:13:14;;;;;;;20.60;6.77;;;;;;;;;;10444687;28;20265;-76
2021/01/09 08:18:16;;;;;;;16.30;7.00;;;;;;;;;;10434495;28;20219;-78
2021/01/09 08:23:17;;;;;;;18.73;7.50;;;;;;;;;;10449209;28;20257;-79
2021/01/09 08:28:21;;;;;;;16.50;7.03;;;;;;;;;;10446563;28;20707;-75
2021/01/09 08:33:22;;;;;;;24.77;7.17;;;;;;;;;;10446174;28;20230;-82
2021/01/09 08:38:27;;;;;;;19.67;6.93;;;;;;;;;;10443288;28;20627;-78
2021/01/09 08:43:30;;;;;;;21.60;7.10;;;;;;;;;;10451698;28;20321;-78
2021/01/09 08:48:34;;;;;;;13.63;6.60;;;;;;;;;;10445636;28;20210;-79
2021/01/09 08:53:41;;;;;;;16.40;7.10;;;;;;;;;;10448412;28;20211;-78
2021/01/09 08:58:44;;;;;;;25.40;6.70;;;;;;;;;;10445085;28;20226;-76
2021/01/09 09:03:48;;;;;;;20.83;6.20;;;;;;;;;;10452554;28;20227;-78
2021/01/09 09:08:52;;;;;;;16.33;6.30;;;;;;;;;;10449234;28;20754;-78
2021/01/09 09:14:05;;;;;;;11.10;5.63;;;;;;;;;;10451528;28;20206;-77
2021/01/09 09:19:10;;;;;;;17.57;6.43;;;;;;;;;;10443726;28;20217;-78
2021/01/09 09:24:13;;;;;;;17.67;5.93;;;;;;;;;;10443656;28;20227;-77
2021/01/09 09:29:16;;;;;;;30.53;6.30;;;;;;;;;;10461613;28;20219;-78
2021/01/09 09:34:26;;;;;;;13.57;6.43;;;;;;;;;;10447959;28;20222;-78
2021/01/09 09:39:28;;;;;;;13.67;6.30;;;;;;;;;;10446926;28;20202;-77
2021/01/09 09:44:34;;;;;;;25.37;5.80;;;;;;;;;;10442355;28;20773;-78
2021/01/09 09:49:37;;;;;;;13.47;5.60;;;;;;;;;;10459256;28;20210;-78
2021/01/09 09:54:39;;;;;;;18.33;6.43;;;;;;;;;;10448301;28;20241;-77
2021/01/09 09:59:41;;;;;;;17.47;6.57;;;;;;;;;;10450661;28;20239;-78
2021/01/09 10:04:46;;;;;;;19.30;6.90;;;;;;;;;;10445837;28;21011;-79
2021/01/09 10:09:55;;;;;;;14.10;6.37;;;;;;;;;;10446285;28;20317;-78
2021/01/09 10:14:58;;;;;;;21.90;6.50;;;;;;;;;;10438647;28;20680;-77
2021/01/09 10:20:00;;;;;;;19.73;6.67;;;;;;;;;;10448297;28;20701;-78
2021/01/09 10:25:02;;;;;;;22.20;7.20;;;;;;;;;;10451687;28;20234;-78
2021/01/09 10:30:05;;;;;;;18.33;7.00;;;;;;;;;;10448731;28;20711;-77
2021/01/09 10:35:08;;;;;;;18.43;7.43;;;;;;;;;;10449738;28;20219;-80
2021/01/09 10:40:10;;;;;;;15.17;6.97;;;;;;;;;;10451988;28;20768;-79
2021/01/09 10:45:13;;;;;;;19.73;6.90;;;;;;;;;;10452063;28;20677;-78
2021/01/09 10:50:15;;;;;;;23.37;7.40;;;;;;;;;;10454733;28;20210;-77
2021/01/09 10:55:17;;;;;;;19.20;8.77;;;;;;;;;;10452525;28;20465;-79
2021/01/09 11:00:21;;;;;;;16.67;7.10;;;;;;;;;;10455829;28;20237;-75
2021/01/09 11:05:28;;;;;;;27.20;6.90;;;;;;;;;;10445977;28;20237;-79
2021/01/09 11:10:31;;;;;;;25.57;7.27;;;;;;;;;;10440864;28;20252;-80
2021/01/09 11:15:44;;;;;;;15.27;6.47;;;;;;;;;;10437572;28;20208;-81
2021/01/09 11:20:46;;;;;;;22.20;7.50;;;;;;;;;;10443715;28;20210;-79
2021/01/09 11:25:49;;;;;;;16.63;5.60;;;;;;;;;;10434279;28;20926;-82
2021/01/09 11:30:52;;;;;;;13.00;4.60;;;;;;;;;;10446691;28;20586;-81
2021/01/09 11:35:54;;;;;;;12.23;4.63;;;;;;;;;;10451455;28;20215;-81
2021/01/09 11:40:56;;;;;;;15.07;5.10;;;;;;;;;;10440397;28;20649;-82
2021/01/09 11:45:59;;;;;;;17.83;4.47;;;;;;;;;;10436304;28;20235;-82
2021/01/09 11:51:01;;;;;;;14.37;3.90;;;;;;;;;;10441392;28;20210;-80
2021/01/09 11:56:03;;;;;;;10.43;4.00;;;;;;;;;;10437505;28;22216;-82
2021/01/09 12:01:06;;;;;;;14.90;3.67;;;;;;;;;;10437619;28;20227;-80
2021/01/09 12:06:07;;;;;;;16.87;4.10;;;;;;;;;;10436767;28;20235;-83
2021/01/09 12:11:09;;;;;;;10.80;3.20;;;;;;;;;;10439966;28;20238;-80
2021/01/09 12:16:13;;;;;;;11.17;2.70;;;;;;;;;;10437293;28;20211;-82
2021/01/09 12:21:15;;;;;;;8.17;2.73;;;;;;;;;;10450840;28;20218;-81
2021/01/09 12:26:17;;;;;;;9.57;2.60;;;;;;;;;;10444852;28;20582;-80
2021/01/09 12:31:30;;;;;;;9.13;2.63;;;;;;;;;;10444344;28;20290;-80
2021/01/09 12:36:52;;;;;;;11.10;2.93;;;;;;;;;;10446350;28;20767;-68
2021/01/09 12:41:54;;;;;;;11.23;2.90;;;;;;;;;;10447924;28;20366;-77
2021/01/09 12:46:58;;;;;;;7.73;3.33;;;;;;;;;;10443477;28;20214;-76
2021/01/09 12:52:00;;;;;;;13.33;3.40;;;;;;;;;;10439787;28;20628;-76
2021/01/09 12:57:02;;;;;;;8.47;2.77;;;;;;;;;;10438014;28;20229;-78
2021/01/09 13:02:05;;;;;;;14.40;3.13;;;;;;;;;;10431252;28;20224;-80
2021/01/09 13:07:07;;;;;;;14.13;3.40;;;;;;;;;;10442189;28;20300;-81
2021/01/09 13:12:10;;;;;;;11.27;2.87;;;;;;;;;;10432785;28;20214;-78
2021/01/09 13:17:14;;;;;;;14.53;3.00;;;;;;;;;;10437202;28;20207;-79
2021/01/09 13:22:16;;;;;;;10.83;2.47;;;;;;;;;;10437697;28;20947;-78
2021/01/09 13:27:18;;;;;;;15.83;2.70;;;;;;;;;;10433580;28;20325;-77
2021/01/09 13:32:24;;;;;;;14.90;2.67;;;;;;;;;;10436615;28;20211;-82
2021/01/09 13:37:26;;;;;;;18.27;2.93;;;;;;;;;;10437472;28;20207;-73
2021/01/09 13:42:27;;;;;;;12.47;2.47;;;;;;;;;;10434194;28;20238;-73
2021/01/09 13:47:34;;;;;;;7.00;2.10;;;;;;;;;;10432324;28;20207;-77
2021/01/09 13:52:36;;;;;;;10.73;2.80;;;;;;;;;;10436441;28;20724;-77
2021/01/09 13:57:43;;;;;;;11.70;2.60;;;;;;;;;;10443713;28;20211;-74
2021/01/09 14:02:46;;;;;;;12.13;2.50;;;;;;;;;;10440303;28;20234;-75
2021/01/09 14:07:47;;;;;;;15.53;3.10;;;;;;;;;;10455198;28;20242;-75
2021/01/09 14:12:49;;;;;;;12.57;2.40;;;;;;;;;;10449977;28;20582;-75
2021/01/09 14:17:52;;;;;;;7.07;2.07;;;;;;;;;;10454347;28;20219;-75
2021/01/09 14:22:53;;;;;;;11.63;2.57;;;;;;;;;;10451325;28;20219;-75
2021/01/09 14:27:55;;;;;;;7.87;2.10;;;;;;;;;;10454410;28;20211;-75
2021/01/09 14:32:59;;;;;;;11.60;1.97;;;;;;;;;;10451359;28;20298;-75
2021/01/09 14:38:00;;;;;;;9.83;2.37;;;;;;;;;;10453858;28;20691;-75
2021/01/09 14:43:02;;;;;;;7.30;1.80;;;;;;;;;;10454083;28;20227;-76
2021/01/09 14:48:06;;;;;;;12.27;1.90;;;;;;;;;;10441057;28;20241;-75
2021/01/09 14:53:08;;;;;;;7.13;2.10;;;;;;;;;;10445217;28;20665;-75
2021/01/09 14:58:10;;;;;;;8.77;2.40;;;;;;;;;;10448516;28;20747;-75
2021/01/09 15:03:13;;;;;;;9.20;2.10;;;;;;;;;;10442574;28;20730;-75
2021/01/09 15:08:14;;;;;;;10.80;1.90;;;;;;;;;;10450250;28;20231;-75
2021/01/09 15:13:16;;;;;;;11.03;2.47;;;;;;;;;;10446281;28;20664;-75
2021/01/09 15:18:38;;;;;;;13.83;3.70;;;;;;;;;;10444077;28;20207;-75
2021/01/09 15:23:40;;;;;;;11.77;2.60;;;;;;;;;;10448228;28;20237;-75
2021/01/09 15:28:41;;;;;;;13.03;2.90;;;;;;;;;;10445703;28;20214;-75
2021/01/09 15:33:44;;;;;;;10.93;2.80;;;;;;;;;;10447647;28;20211;-75
2021/01/09 15:38:57;;;;;;;15.03;2.50;;;;;;;;;;10444441;28;20227;-74
2021/01/09 15:43:59;;;;;;;12.10;2.70;;;;;;;;;;10448931;28;20234;-75
2021/01/09 15:49:02;;;;;;;9.27;2.90;;;;;;;;;;10449455;28;20756;-74
2021/01/09 15:54:04;;;;;;;13.23;2.37;;;;;;;;;;10445711;28;20203;-75
2021/01/09 15:59:06;;;;;;;11.33;2.60;;;;;;;;;;10445584;28;20238;-75
2021/01/09 16:04:10;;;;;;;19.00;3.63;;;;;;;;;;10442533;28;20235;-74
2021/01/09 16:09:12;;;;;;;18.20;3.10;;;;;;;;;;10446749;28;20420;-75
2021/01/09 16:14:13;;;;;;;21.10;3.30;;;;;;;;;;10436660;28;20336;-76
2021/01/09 16:19:16;;;;;;;13.00;3.63;;;;;;;;;;10437620;28;20613;-74
2021/01/09 16:24:18;;;;;;;15.40;3.90;;;;;;;;;;10438184;28;20278;-73
2021/01/09 16:29:20;;;;;;;16.63;5.07;;;;;;;;;;10440986;28;20468;-74
2021/01/09 16:34:22;;;;;;;18.00;5.13;;;;;;;;;;10438495;28;20470;-72
2021/01/09 16:39:31;;;;;;;16.43;5.50;;;;;;;;;;10443002;28;20418;-72
2021/01/09 16:44:33;;;;;;;14.23;5.37;;;;;;;;;;10437460;28;20329;-71
2021/01/09 16:49:36;;;;;;;19.27;4.47;;;;;;;;;;10441079;28;20719;-71
2021/01/09 16:54:38;;;;;;;12.03;4.30;;;;;;;;;;10442257;28;20210;-73
2021/01/09 16:59:40;;;;;;;16.83;4.87;;;;;;;;;;10441149;28;20716;-71
2021/01/09 17:04:42;;;;;;;16.23;5.57;;;;;;;;;;10439782;28;20223;-72
2021/01/09 17:09:44;;;;;;;21.40;5.60;;;;;;;;;;10437501;28;20619;-71
2021/01/09 17:14:46;;;;;;;20.37;5.47;;;;;;;;;;10427991;28;20361;-71
2021/01/09 17:19:49;;;;;;;17.07;5.03;;;;;;;;;;10434191;28;20215;-72
2021/01/09 17:24:51;;;;;;;15.63;5.57;;;;;;;;;;10433688;28;20239;-73
2021/01/09 17:29:57;;;;;;;18.07;6.10;;;;;;;;;;10435179;28;20561;-72
2021/01/09 17:35:00;;;;;;;21.90;6.43;;;;;;;;;;10444354;28;20600;-73
2021/01/09 17:40:01;;;;;;;17.07;6.80;;;;;;;;;;10445427;28;20602;-71
2021/01/09 17:45:03;;;;;;;22.63;8.13;;;;;;;;;;10439708;28;20237;-70
2021/01/09 17:50:06;;;;;;;22.87;8.87;;;;;;;;;;10446247;28;20214;-71
2021/01/09 17:55:09;;;;;;;27.23;9.00;;;;;;;;;;10439339;28;20207;-71
2021/01/09 18:00:11;;;;;;;37.60;11.70;;;;;;;;;;10441534;28;20230;-71
2021/01/09 18:05:14;;;;;;;27.53;10.23;;;;;;;;;;10442554;28;20834;-72
2021/01/09 18:10:17;;;;;;;27.77;9.37;;;;;;;;;;10441259;28;20732;-71
2021/01/09 18:15:19;;;;;;;22.87;8.80;;;;;;;;;;10439734;28;20488;-72
2021/01/09 18:20:21;;;;;;;24.13;8.17;;;;;;;;;;10441975;28;20207;-71
2021/01/09 18:25:23;;;;;;;25.50;8.50;;;;;;;;;;10441528;28;20227;-71
2021/01/09 18:30:25;;;;;;;30.03;9.90;;;;;;;;;;10446295;28;20207;-71
2021/01/09 18:35:28;;;;;;;30.67;9.77;;;;;;;;;;10443130;28;20210;-71
2021/01/09 18:40:29;;;;;;;30.33;10.20;;;;;;;;;;10438582;28;20882;-71
2021/01/09 18:45:32;;;;;;;25.43;8.93;;;;;;;;;;10436853;28;20238;-72
2021/01/09 18:50:54;;;;;;;31.67;9.50;;;;;;;;;;10440970;28;20210;-71
2021/01/09 18:56:17;;;;;;;27.73;9.33;;;;;;;;;;10448978;28;20298;-72
2021/01/09 19:01:19;;;;;;;39.80;9.83;;;;;;;;;;10439634;28;20891;-72
2021/01/09 19:06:22;;;;;;;28.83;10.30;;;;;;;;;;10446656;28;20253;-72
2021/01/09 19:11:43;;;;;;;27.97;9.53;;;;;;;;;;10442584;28;20708;-71
2021/01/09 19:16:47;;;;;;;33.13;10.03;;;;;;;;;;10437341;28;20579;-71
2021/01/09 19:21:51;;;;;;;27.23;10.30;;;;;;;;;;10436805;28;20203;-71
2021/01/09 19:26:53;;;;;;;28.60;10.43;;;;;;;;;;10448329;28;20230;-71
2021/01/09 19:31:55;;;;;;;39.80;9.97;;;;;;;;;;10446273;28;20214;-71
2021/01/09 19:36:58;;;;;;;23.90;9.20;;;;;;;;;;10441413;28;20261;-71
2021/01/09 19:42:03;;;;;;;41.20;9.43;;;;;;;;;;10438732;28;20716;-72
2021/01/09 19:47:04;;;;;;;33.90;9.50;;;;;;;;;;10438853;28;20242;-73
2021/01/09 19:52:07;;;;;;;29.80;9.40;;;;;;;;;;10438463;28;20288;-73
2021/01/09 19:57:13;;;;;;;37.33;13.43;;;;;;;;;;10439156;28;20215;-72
2021/01/09 20:02:14;;;;;;;39.47;14.73;;;;;;;;;;10438724;28;20230;-73
2021/01/09 20:07:17;;;;;;;30.77;12.77;;;;;;;;;;10452686;28;20788;-70
2021/01/09 20:12:19;;;;;;;37.70;15.07;;;;;;;;;;10437564;28;20673;-73
2021/01/09 20:17:21;;;;;;;46.90;16.73;;;;;;;;;;10436389;28;20214;-72
2021/01/09 20:22:24;;;;;;;40.23;16.63;;;;;;;;;;10432820;28;20635;-73
2021/01/09 20:27:25;;;;;;;37.63;15.30;;;;;;;;;;10438523;28;20318;-73
2021/01/09 20:32:27;;;;;;;41.93;15.67;;;;;;;;;;10435716;28;20211;-73
2021/01/09 20:37:31;;;;;;;49.90;16.53;;;;;;;;;;10439883;28;20199;-72
2021/01/09 20:42:36;;;;;;;42.23;16.67;;;;;;;;;;10436472;28;20208;-73
2021/01/09 20:47:39;;;;;;;37.20;15.43;;;;;;;;;;10435877;28;20226;-73
2021/01/09 20:52:42;;;;;;;40.00;16.97;;;;;;;;;;10438303;28;20211;-74
2021/01/09 20:57:44;;;;;;;54.30;17.67;;;;;;;;;;10436844;28;20268;-73
2021/01/09 21:02:45;;;;;;;50.00;17.40;;;;;;;;;;10432240;28;20581;-72
2021/01/09 21:07:48;;;;;;;51.17;18.37;;;;;;;;;;10433959;28;20605;-71
2021/01/09 21:12:50;;;;;;;41.37;18.37;;;;;;;;;;10436506;28;20214;-71
2021/01/09 21:17:52;;;;;;;40.87;17.17;;;;;;;;;;10444949;28;20238;-72
2021/01/09 21:22:55;;;;;;;52.57;17.67;;;;;;;;;;10428140;28;20215;-72
2021/01/09 21:27:56;;;;;;;46.47;18.67;;;;;;;;;;10431448;28;20218;-72
2021/01/09 21:32:59;;;;;;;41.80;18.80;;;;;;;;;;10423476;28;20223;-73
2021/01/09 21:38:02;;;;;;;44.33;18.30;;;;;;;;;;10430736;28;20679;-71
2021/01/09 21:43:04;;;;;;;38.57;15.93;;;;;;;;;;10441994;28;20222;-71
2021/01/09 21:48:06;;;;;;;41.47;16.33;;;;;;;;;;10442930;28;20988;-71
2021/01/09 21:53:09;;;;;;;44.03;14.53;;;;;;;;;;10446788;28;20217;-69
2021/01/09 21:58:11;;;;;;;43.27;15.90;;;;;;;;;;10427880;28;20235;-72
2021/01/09 22:03:13;;;;;;;33.33;15.83;;;;;;;;;;10423926;28;20245;-71
2021/01/09 22:08:15;;;;;;;34.60;16.30;;;;;;;;;;10433006;28;20227;-71
2021/01/09 22:13:17;;;;;;;40.53;17.27;;;;;;;;;;10441710;28;20218;-72
2021/01/09 22:18:19;;;;;;;36.73;18.03;;;;;;;;;;10436888;28;20715;-71
2021/01/09 22:23:22;;;;;;;46.93;18.10;;;;;;;;;;10435799;28;20227;-71
2021/01/09 22:28:23;;;;;;;48.93;17.97;;;;;;;;;;10436373;28;20222;-71
2021/01/09 22:33:27;;;;;;;41.13;18.97;;;;;;;;;;10438165;28;20211;-72
2021/01/09 22:38:33;;;;;;;43.20;17.23;;;;;;;;;;10435806;28;20221;-70
2021/01/09 22:43:36;;;;;;;44.13;18.57;;;;;;;;;;10444015;28;20234;-71
2021/01/09 22:48:38;;;;;;;47.90;19.10;;;;;;;;;;10438808;28;20589;-71
2021/01/09 22:53:40;;;;;;;39.20;17.73;;;;;;;;;;10442359;28;20203;-70
2021/01/09 22:58:42;;;;;;;33.53;16.23;;;;;;;;;;10442146;28;20245;-70
2021/01/09 23:03:44;;;;;;;51.27;17.53;;;;;;;;;;10442440;28;20226;-70
2021/01/09 23:08:46;;;;;;;46.53;15.80;;;;;;;;;;10441119;28;20230;-69
2021/01/09 23:13:49;;;;;;;35.40;14.73;;;;;;;;;;10443471;28;21143;-71
2021/01/09 23:18:51;;;;;;;45.63;15.90;;;;;;;;;;10436472;28;20699;-69
2021/01/09 23:23:54;;;;;;;44.27;16.90;;;;;;;;;;10440382;28;20235;-70
2021/01/09 23:28:56;;;;;;;43.83;17.17;;;;;;;;;;10442637;28;20760;-69
2021/01/09 23:33:57;;;;;;;54.63;18.13;;;;;;;;;;10457812;28;20608;-70
2021/01/09 23:39:00;;;;;;;42.43;18.73;;;;;;;;;;10443928;28;20207;-70
2021/01/09 23:44:02;;;;;;;41.63;17.90;;;;;;;;;;10445837;28;20261;-72
2021/01/09 23:49:04;;;;;;;49.50;19.87;;;;;;;;;;10439764;28;20203;-70
2021/01/09 23:54:07;;;;;;;46.67;18.73;;;;;;;;;;10439166;28;20215;-70
2021/01/09 23:59:09;;;;;;;50.60;19.13;;;;;;;;;;10435333;28;20236;-71
